Aberdeen, Pennsylvania
Current Conditions -  °F | °C
As of 12:56 AM on Friday 31 Oct 2014 (Local Time) from KMDT Reporting Station
Overcast Overcast  
Wind Chill: 48°   Ceiling: 5500
Heat Index: 48°   Visibility: 10mi
Dew Point: 39°   Wind: 0mph
Humidity: 71%   Direction: NA
Pressure: 30.03"   Gusts: NA
Location:  40.1674°N, 76.6045°W
Report Text: KMDT 310456Z 00000KT 10SM OVC055 09/04 A3003 RMK AO2 SLP169 T00890039 401390056
Loading
Personal Weather Stations






























Interactive Weather Map New forecast layout! Learn more

10-Day Weather Forecast

Advertisements
Track Severe Weather on mobile